createdAt,value
2017-11-27T00:01:13.500Z,17.90
2017-11-27T00:03:14.504Z,16.20
2017-11-27T00:05:15.548Z,18.53
2017-11-27T00:07:16.522Z,16.90
2017-11-27T00:09:17.576Z,17.97
2017-11-27T00:11:18.630Z,19.53
2017-11-27T00:13:19.578Z,17.10
2017-11-27T00:15:20.622Z,18.83
2017-11-27T00:17:21.734Z,17.87
2017-11-27T00:19:22.719Z,18.90
2017-11-27T00:21:24.466Z,17.47
2017-11-27T00:23:26.181Z,17.00
2017-11-27T00:25:27.193Z,18.40
2017-11-27T00:27:28.137Z,18.40
2017-11-27T00:29:29.886Z,16.80
2017-11-27T00:31:30.868Z,15.43
2017-11-27T00:33:31.809Z,16.43
2017-11-27T00:35:32.928Z,15.60
2017-11-27T00:37:34.685Z,16.60
2017-11-27T00:39:35.659Z,16.53
2017-11-27T00:41:36.923Z,15.30
2017-11-27T00:43:37.882Z,16.80
2017-11-27T00:45:38.885Z,14.30
2017-11-27T00:47:39.864Z,12.97
2017-11-27T00:49:40.889Z,16.30
2017-11-27T00:51:41.872Z,16.93
2017-11-27T00:53:42.985Z,18.57
2017-11-27T00:55:44.677Z,16.70
2017-11-27T00:57:45.675Z,17.70
2017-11-27T00:59:47.393Z,16.53
2017-11-27T01:01:49.105Z,18.30
2017-11-27T01:03:50.897Z,16.60
2017-11-27T01:05:51.918Z,16.67
2017-11-27T01:07:52.977Z,18.00
2017-11-27T01:09:53.971Z,18.93
2017-11-27T01:11:55.022Z,18.30
2017-11-27T01:13:56.008Z,19.40
2017-11-27T01:15:57.020Z,17.73
2017-11-27T01:17:58.092Z,17.90
2017-11-27T01:19:59.834Z,18.30
2017-11-27T01:22:00.784Z,20.27
2017-11-27T01:24:01.779Z,16.60
2017-11-27T01:26:02.913Z,21.07
2017-11-27T01:28:03.885Z,20.73
2017-11-27T01:30:04.883Z,20.63
2017-11-27T01:32:05.872Z,20.70
2017-11-27T01:34:06.840Z,21.50
2017-11-27T01:36:07.848Z,16.37
2017-11-27T01:38:08.872Z,20.77
2017-11-27T01:40:09.990Z,19.73
2017-11-27T01:42:10.954Z,19.27
2017-11-27T01:44:11.973Z,20.57
2017-11-27T01:46:13.249Z,21.93
2017-11-27T01:48:14.333Z,20.60
2017-11-27T01:50:15.308Z,20.97
2017-11-27T01:52:16.281Z,20.77
2017-11-27T01:54:17.231Z,20.07
2017-11-27T01:56:18.193Z,21.10
2017-11-27T01:58:19.153Z,21.67
2017-11-27T02:00:20.121Z,20.67
2017-11-27T02:02:21.201Z,17.70
2017-11-27T02:04:22.229Z,20.10
2017-11-27T02:06:23.290Z,21.27
2017-11-27T02:08:24.307Z,18.87
2017-11-27T02:10:26.096Z,20.90
2017-11-27T02:12:27.099Z,19.80
2017-11-27T02:14:28.907Z,21.60
2017-11-27T02:16:29.939Z,19.83
2017-11-27T02:18:30.911Z,19.87
2017-11-27T02:20:31.930Z,19.30
2017-11-27T02:22:32.934Z,20.40
2017-11-27T02:24:33.949Z,21.10
2017-11-27T02:26:35.146Z,21.00
2017-11-27T02:28:36.127Z,18.90
2017-11-27T02:30:37.284Z,22.47
2017-11-27T02:32:38.264Z,20.70
2017-11-27T02:34:39.285Z,19.37
2017-11-27T02:36:40.268Z,20.27
2017-11-27T02:38:41.216Z,19.97
2017-11-27T02:40:42.245Z,21.00
2017-11-27T02:42:43.291Z,21.20
2017-11-27T02:44:44.294Z,21.47
2017-11-27T02:46:45.312Z,18.20
2017-11-27T02:48:46.284Z,17.53
2017-11-27T02:50:47.254Z,15.30
2017-11-27T02:52:48.301Z,15.80
2017-11-27T02:54:49.266Z,17.87
2017-11-27T02:56:50.575Z,18.87
2017-11-27T02:58:52.336Z,20.77
2017-11-27T03:00:54.087Z,19.77
2017-11-27T03:02:55.880Z,19.83
2017-11-27T03:04:56.840Z,19.50
2017-11-27T03:06:57.827Z,22.33
2017-11-27T03:08:58.800Z,22.40
2017-11-27T03:11:00.471Z,20.57
2017-11-27T03:13:02.277Z,19.33
2017-11-27T03:15:03.273Z,18.70
2017-11-27T03:17:04.963Z,21.57
2017-11-27T03:19:06.012Z,17.13
2017-11-27T03:21:06.980Z,20.53
2017-11-27T03:23:08.057Z,20.13
2017-11-27T03:25:09.036Z,18.30
2017-11-27T03:27:10.813Z,18.70
2017-11-27T03:29:11.876Z,18.67
2017-11-27T03:31:12.888Z,18.37
2017-11-27T03:33:13.897Z,18.00
2017-11-27T03:35:14.925Z,17.93
2017-11-27T03:37:15.885Z,17.90
2017-11-27T03:39:16.921Z,16.37
2017-11-27T03:41:17.949Z,17.50
2017-11-27T03:43:18.961Z,16.03
2017-11-27T03:45:19.945Z,16.50
2017-11-27T03:47:20.993Z,16.93
2017-11-27T03:49:22.008Z,17.77
2017-11-27T03:51:23.122Z,16.20
2017-11-27T03:53:24.162Z,15.80
2017-11-27T03:55:25.169Z,16.57
2017-11-27T03:57:26.200Z,16.00
2017-11-27T03:59:27.211Z,16.07
2017-11-27T04:01:28.191Z,16.00
2017-11-27T04:03:29.913Z,17.97
2017-11-27T04:05:31.013Z,15.27
2017-11-27T04:07:31.966Z,15.63
2017-11-27T04:09:33.440Z,16.30
2017-11-27T04:11:34.435Z,16.27
2017-11-27T04:13:35.398Z,15.33
2017-11-27T04:15:36.384Z,14.90
2017-11-27T04:17:37.437Z,13.33
2017-11-27T04:19:38.494Z,14.50
2017-11-27T04:21:39.474Z,14.07
2017-11-27T04:23:40.425Z,13.83
2017-11-27T04:25:41.386Z,15.30
2017-11-27T04:27:42.324Z,13.33
2017-11-27T04:29:43.373Z,13.87
2017-11-27T04:31:44.360Z,13.63
2017-11-27T04:33:45.320Z,14.77
2017-11-27T04:35:46.273Z,12.70
2017-11-27T04:37:47.236Z,13.03
2017-11-27T04:39:48.323Z,14.70
2017-11-27T04:41:49.308Z,14.40
2017-11-27T04:43:50.413Z,14.73
2017-11-27T04:45:52.234Z,12.87
2017-11-27T04:47:53.265Z,14.87
2017-11-27T04:49:54.295Z,13.40
2017-11-27T04:51:55.266Z,12.37
2017-11-27T04:53:56.220Z,12.63
2017-11-27T04:55:57.251Z,12.90
2017-11-27T04:57:58.300Z,14.20
2017-11-27T04:59:59.269Z,14.93
2017-11-27T05:02:00.302Z,13.47
2017-11-27T05:04:01.341Z,13.80
2017-11-27T05:06:02.293Z,14.17
2017-11-27T05:08:03.346Z,10.20
2017-11-27T05:10:05.402Z,13.60
2017-11-27T05:12:06.357Z,14.53
2017-11-27T05:14:07.626Z,12.63
2017-11-27T05:16:08.714Z,12.80
2017-11-27T05:18:09.680Z,12.93
2017-11-27T05:20:10.658Z,13.40
2017-11-27T05:22:11.695Z,10.10
2017-11-27T05:24:12.709Z,13.37
2017-11-27T05:26:14.050Z,12.60
2017-11-27T05:28:14.989Z,12.23
2017-11-27T05:30:15.932Z,12.20
2017-11-27T05:32:16.884Z,13.50
2017-11-27T05:34:17.896Z,10.43
2017-11-27T05:36:18.907Z,12.77
2017-11-27T05:38:19.923Z,12.27
2017-11-27T05:40:20.917Z,11.50
2017-11-27T05:42:21.984Z,13.80
2017-11-27T05:44:23.041Z,13.57
2017-11-27T05:46:24.130Z,10.90
2017-11-27T05:48:25.850Z,14.13
2017-11-27T05:50:26.905Z,14.37
2017-11-27T05:52:27.884Z,11.67
2017-11-27T05:54:28.888Z,13.47
2017-11-27T05:56:29.832Z,15.00
2017-11-27T05:58:30.819Z,12.37
2017-11-27T06:00:32.504Z,15.97
2017-11-27T06:02:33.518Z,12.93
2017-11-27T06:04:34.468Z,14.53
2017-11-27T06:06:35.469Z,13.60
2017-11-27T06:08:36.426Z,14.83
2017-11-27T06:10:37.395Z,13.03
2017-11-27T06:12:38.423Z,15.30
2017-11-27T06:14:39.381Z,13.07
2017-11-27T06:16:40.341Z,12.53
2017-11-27T06:18:41.343Z,9.47
2017-11-27T06:20:42.314Z,12.70
2017-11-27T06:22:43.420Z,13.90
2017-11-27T06:24:44.374Z,15.63
2017-11-27T06:26:45.376Z,13.67
2017-11-27T06:28:46.448Z,15.03
2017-11-27T06:30:47.508Z,14.73
2017-11-27T06:32:48.530Z,11.10
2017-11-27T06:34:49.510Z,15.10
2017-11-27T06:36:50.504Z,14.83
2017-11-27T06:38:51.985Z,13.53
2017-11-27T06:40:53.269Z,11.83
2017-11-27T06:42:54.434Z,15.30
2017-11-27T06:44:55.486Z,14.33
2017-11-27T06:46:56.506Z,14.63
2017-11-27T06:48:57.548Z,15.40
2017-11-27T06:50:58.517Z,15.33
2017-11-27T06:52:59.490Z,15.80
2017-11-27T06:55:00.575Z,15.40
2017-11-27T06:57:01.537Z,15.93
2017-11-27T06:59:02.501Z,14.10
2017-11-27T07:01:03.518Z,17.33
2017-11-27T07:03:04.512Z,14.20
2017-11-27T07:05:05.488Z,13.70
2017-11-27T07:07:06.460Z,13.47
2017-11-27T07:09:07.449Z,11.80
2017-11-27T07:11:08.491Z,13.60
2017-11-27T07:13:09.514Z,13.53
2017-11-27T07:15:10.502Z,14.20
2017-11-27T07:17:11.507Z,9.13
2017-11-27T07:19:12.489Z,11.73
2017-11-27T07:21:13.441Z,10.67
2017-11-27T07:23:14.469Z,12.57
2017-11-27T07:25:15.424Z,12.37
2017-11-27T07:27:16.394Z,11.00
2017-11-27T07:29:18.101Z,12.23
2017-11-27T07:31:19.280Z,11.47
2017-11-27T07:33:20.245Z,12.17
2017-11-27T07:35:21.259Z,10.67
2017-11-27T07:37:29.784Z,9.40
2017-11-27T07:39:36.923Z,10.40
2017-11-27T07:41:37.889Z,10.10
2017-11-27T07:43:39.530Z,10.27
2017-11-27T07:45:40.572Z,9.07
2017-11-27T07:47:42.271Z,9.23
2017-11-27T07:49:43.428Z,9.13
2017-11-27T07:51:48.366Z,9.53
2017-11-27T07:53:49.581Z,6.40
2017-11-27T07:55:50.728Z,7.53
2017-11-27T07:57:58.770Z,8.00
2017-11-27T07:59:59.879Z,7.63
2017-11-27T08:02:01.507Z,6.37
2017-11-27T08:04:02.473Z,7.00
2017-11-27T08:06:03.423Z,8.50
2017-11-27T08:08:04.418Z,6.50
2017-11-27T08:10:05.399Z,6.60
2017-11-27T08:12:06.409Z,5.90
2017-11-27T08:14:07.461Z,6.97
2017-11-27T08:16:08.498Z,5.23
2017-11-27T08:18:09.466Z,5.30
2017-11-27T08:20:10.441Z,6.47
2017-11-27T08:22:11.410Z,4.60
2017-11-27T08:24:12.430Z,4.23
2017-11-27T08:26:13.489Z,5.20
2017-11-27T08:28:14.503Z,5.00
2017-11-27T08:30:15.502Z,5.10
2017-11-27T08:32:18.459Z,5.67
2017-11-27T08:34:19.441Z,4.70
2017-11-27T08:36:22.469Z,4.60
2017-11-27T08:38:23.533Z,4.87
2017-11-27T08:40:24.792Z,4.23
2017-11-27T08:42:25.809Z,3.57
2017-11-27T08:44:26.800Z,3.40
2017-11-27T08:46:27.886Z,3.60
2017-11-27T08:48:28.878Z,3.20
2017-11-27T08:50:30.090Z,4.03
2017-11-27T08:52:31.805Z,2.67
2017-11-27T08:54:33.578Z,3.90
2017-11-27T08:56:34.592Z,3.77
2017-11-27T08:58:35.569Z,3.73
2017-11-27T09:00:36.784Z,4.60
2017-11-27T09:02:37.815Z,3.57
2017-11-27T09:04:38.905Z,2.80
2017-11-27T09:06:39.901Z,3.93
2017-11-27T09:08:40.929Z,3.67
2017-11-27T09:10:41.992Z,3.40
2017-11-27T09:12:43.044Z,3.10
2017-11-27T09:14:44.714Z,3.60
2017-11-27T09:16:46.016Z,3.80
2017-11-27T09:18:47.771Z,3.17
2017-11-27T09:20:48.748Z,3.20
2017-11-27T09:22:53.275Z,3.33
2017-11-27T09:25:05.395Z,4.50
2017-11-27T09:27:06.363Z,3.40
2017-11-27T09:29:07.903Z,3.70
2017-11-27T09:31:08.984Z,3.97
2017-11-27T09:33:09.972Z,4.10
2017-11-27T09:35:10.937Z,3.80
2017-11-27T09:37:11.905Z,3.23
2017-11-27T09:39:12.877Z,3.50
2017-11-27T09:41:13.833Z,3.10
2017-11-27T09:43:14.838Z,3.57
2017-11-27T09:45:16.630Z,3.70
2017-11-27T09:47:17.590Z,4.07
2017-11-27T09:49:18.536Z,4.17
2017-11-27T09:51:19.717Z,3.70
2017-11-27T09:53:20.678Z,4.17
2017-11-27T09:55:21.626Z,3.17
2017-11-27T09:57:22.641Z,2.90
2017-11-27T09:59:23.649Z,3.57
2017-11-27T10:01:24.626Z,3.57
2017-11-27T10:03:25.584Z,3.73
2017-11-27T10:05:26.577Z,2.50
2017-11-27T10:07:28.312Z,2.70
2017-11-27T10:09:29.284Z,4.10
2017-11-27T10:11:31.003Z,2.77
2017-11-27T10:13:31.949Z,2.87
2017-11-27T10:15:32.905Z,3.13
2017-11-27T10:17:33.869Z,2.87
2017-11-27T10:19:34.822Z,2.87
2017-11-27T10:21:35.790Z,2.50
2017-11-27T10:23:36.969Z,2.80
2017-11-27T10:25:37.950Z,3.53
2017-11-27T10:27:38.948Z,2.93
2017-11-27T10:29:39.917Z,2.90
2017-11-27T10:31:40.890Z,3.07
2017-11-27T10:33:41.883Z,3.10
2017-11-27T10:35:42.843Z,2.97
2017-11-27T10:37:43.821Z,3.40
2017-11-27T10:39:44.817Z,2.43
2017-11-27T10:41:46.042Z,2.90
2017-11-27T10:43:47.788Z,2.50
2017-11-27T10:45:48.799Z,2.70
2017-11-27T10:47:49.799Z,1.90
2017-11-27T10:49:50.752Z,2.47
2017-11-27T10:51:52.469Z,3.17
2017-11-27T10:53:53.880Z,2.97
2017-11-27T10:55:55.613Z,2.60
2017-11-27T10:57:56.597Z,2.50
2017-11-27T10:59:57.558Z,2.43
2017-11-27T11:01:58.508Z,2.53
2017-11-27T11:03:59.572Z,2.80
2017-11-27T11:06:00.531Z,2.40
2017-11-27T11:08:01.604Z,2.50
2017-11-27T11:10:03.349Z,2.70
2017-11-27T11:12:04.325Z,2.70
2017-11-27T11:14:06.012Z,3.13
2017-11-27T11:16:07.018Z,2.07
2017-11-27T11:18:08.056Z,1.90
2017-11-27T11:20:09.021Z,2.50
2017-11-27T11:22:10.008Z,1.80
2017-11-27T11:24:11.025Z,2.45
2017-11-27T11:26:11.985Z,2.40
2017-11-27T11:28:13.680Z,2.43
2017-11-27T11:30:14.673Z,2.60
2017-11-27T11:32:15.642Z,2.07
2017-11-27T11:34:16.614Z,2.70
2017-11-27T11:36:17.578Z,2.70
2017-11-27T11:38:18.542Z,2.23
2017-11-27T11:40:20.765Z,2.70
2017-11-27T11:42:20.692Z,1.90
2017-11-27T11:44:21.625Z,2.20
2017-11-27T11:46:22.602Z,2.40
2017-11-27T11:48:23.721Z,2.63
2017-11-27T11:50:24.717Z,2.00
2017-11-27T11:52:25.863Z,2.53
2017-11-27T11:54:26.819Z,2.30
2017-11-27T11:56:27.936Z,2.17
2017-11-27T11:58:28.925Z,2.53
2017-11-27T12:00:29.950Z,2.03
2017-11-27T12:02:30.904Z,2.30
2017-11-27T12:04:31.927Z,2.50
2017-11-27T12:06:32.930Z,2.80
2017-11-27T12:08:33.911Z,2.30
2017-11-27T12:10:34.890Z,2.30
2017-11-27T12:12:35.853Z,2.27
2017-11-27T12:14:37.178Z,2.13
2017-11-27T12:16:38.250Z,2.90
2017-11-27T12:18:39.266Z,2.47
2017-11-27T12:20:40.383Z,1.97
2017-11-27T12:22:41.384Z,2.67
2017-11-27T12:24:42.328Z,1.80
2017-11-27T12:26:43.280Z,1.97
2017-11-27T12:28:44.241Z,2.10
2017-11-27T12:30:45.186Z,1.73
2017-11-27T12:32:46.176Z,2.30
2017-11-27T12:34:47.137Z,1.63
2017-11-27T12:36:48.281Z,2.30
2017-11-27T12:38:49.259Z,1.93
2017-11-27T12:40:50.221Z,2.77
2017-11-27T12:42:51.215Z,2.00
2017-11-27T12:44:52.186Z,1.93
2017-11-27T12:46:53.167Z,1.83
2017-11-27T12:48:54.942Z,1.70
2017-11-27T12:50:55.929Z,1.90
2017-11-27T12:52:56.928Z,1.77
2017-11-27T12:54:57.934Z,2.13
2017-11-27T12:56:58.892Z,2.03
2017-11-27T12:58:59.848Z,2.30
2017-11-27T13:01:01.577Z,1.77
2017-11-27T13:03:02.574Z,1.60
2017-11-27T13:05:04.308Z,1.60
2017-11-27T13:07:05.451Z,1.80
2017-11-27T13:09:06.492Z,1.90
2017-11-27T13:11:07.482Z,2.07
2017-11-27T13:13:08.466Z,2.30
2017-11-27T13:15:09.484Z,1.70
2017-11-27T13:17:10.526Z,1.67
2017-11-27T13:19:12.213Z,1.70
2017-11-27T13:21:13.173Z,1.50
2017-11-27T13:23:14.150Z,1.53
2017-11-27T13:25:15.100Z,1.50
2017-11-27T13:27:16.071Z,1.30
2017-11-27T13:29:17.771Z,1.67
2017-11-27T13:31:19.075Z,1.60
2017-11-27T13:33:20.761Z,1.90
2017-11-27T13:35:21.970Z,1.60
2017-11-27T13:37:22.978Z,1.97
2017-11-27T13:39:23.986Z,1.77
2017-11-27T13:41:25.000Z,1.90
2017-11-27T13:43:25.995Z,1.50
2017-11-27T13:45:26.978Z,2.07
2017-11-27T13:47:27.967Z,1.87
2017-11-27T13:49:29.657Z,1.90
2017-11-27T13:51:30.638Z,1.77
2017-11-27T13:53:31.596Z,1.40
2017-11-27T13:55:32.559Z,2.13
2017-11-27T13:57:33.495Z,1.87
2017-11-27T13:59:34.470Z,2.00
2017-11-27T14:01:35.578Z,1.90
2017-11-27T14:03:36.629Z,2.10
2017-11-27T14:05:37.626Z,1.63
2017-11-27T14:07:38.628Z,2.60
2017-11-27T14:09:39.679Z,1.70
2017-11-27T14:11:40.634Z,1.80
2017-11-27T14:13:41.597Z,1.57
2017-11-27T14:15:42.565Z,1.73
2017-11-27T14:17:43.521Z,1.40
2017-11-27T14:19:44.496Z,1.50
2017-11-27T14:21:45.545Z,1.93
2017-11-27T14:23:46.533Z,1.90
2017-11-27T14:25:48.334Z,1.27
2017-11-27T14:27:49.302Z,1.77
2017-11-27T14:29:50.270Z,1.73
2017-11-27T14:31:51.425Z,1.73
2017-11-27T14:33:53.136Z,2.00
2017-11-27T14:35:54.105Z,1.70
2017-11-27T14:37:55.077Z,1.63
2017-11-27T14:39:56.170Z,1.60
2017-11-27T14:41:57.138Z,2.03
2017-11-27T14:43:58.130Z,1.53
2017-11-27T14:45:59.889Z,1.60
2017-11-27T14:48:01.622Z,1.67
2017-11-27T14:50:02.757Z,1.50
2017-11-27T14:52:03.726Z,1.53
2017-11-27T14:54:04.846Z,1.67
2017-11-27T14:56:05.881Z,1.47
2017-11-27T14:58:06.898Z,1.60
2017-11-27T15:00:07.912Z,1.70
2017-11-27T15:02:09.062Z,1.67
2017-11-27T15:04:10.348Z,1.90
2017-11-27T15:06:11.664Z,1.83
2017-11-27T15:08:12.710Z,1.83
2017-11-27T15:10:13.747Z,1.53
2017-11-27T15:12:14.767Z,1.47
2017-11-27T15:14:15.746Z,1.83
2017-11-27T15:16:16.790Z,1.50
2017-11-27T15:18:17.929Z,1.77
2017-11-27T15:20:19.017Z,1.60
2017-11-27T15:22:20.182Z,1.70
2017-11-27T15:24:21.528Z,1.80
2017-11-27T15:26:22.555Z,1.47
2017-11-27T15:28:23.561Z,1.50
2017-11-27T15:30:24.534Z,1.63
2017-11-27T15:32:25.595Z,1.70
2017-11-27T15:34:26.821Z,1.40
2017-11-27T15:36:27.914Z,1.63
2017-11-27T15:38:28.948Z,1.77
2017-11-27T15:40:30.022Z,1.40
2017-11-27T15:42:31.079Z,1.13
2017-11-27T15:44:32.078Z,1.90
2017-11-27T15:46:33.145Z,2.07
2017-11-27T15:48:34.328Z,1.97
2017-11-27T15:50:35.395Z,1.40
2017-11-27T15:52:36.676Z,1.87
2017-11-27T15:54:37.682Z,1.80
2017-11-27T15:56:38.674Z,1.90
2017-11-27T15:58:39.726Z,1.40
2017-11-27T16:00:40.737Z,1.53
2017-11-27T16:02:41.839Z,1.70
2017-11-27T16:04:42.868Z,1.50
2017-11-27T16:06:43.845Z,1.67
2017-11-27T16:08:44.838Z,1.93
2017-11-27T16:10:45.956Z,1.80
2017-11-27T16:12:46.985Z,2.03
2017-11-27T16:14:47.985Z,1.67
2017-11-27T16:16:49.178Z,1.80
2017-11-27T16:18:50.307Z,1.50
2017-11-27T16:20:57.449Z,2.40
2017-11-27T16:22:58.498Z,1.93
2017-11-27T16:24:59.449Z,2.20
2017-11-27T16:27:00.469Z,2.03
2017-11-27T16:29:01.778Z,2.10
2017-11-27T16:31:02.842Z,2.50
2017-11-27T16:33:03.861Z,2.30
2017-11-27T16:35:04.814Z,2.20
2017-11-27T16:37:05.789Z,2.50
2017-11-27T16:39:06.754Z,2.27
2017-11-27T16:41:07.771Z,2.30
2017-11-27T16:43:08.771Z,2.30
2017-11-27T16:45:09.756Z,2.43
2017-11-27T16:47:10.806Z,2.60
2017-11-27T16:49:11.802Z,2.50
2017-11-27T16:51:12.815Z,2.57
2017-11-27T16:53:13.769Z,2.50
2017-11-27T16:55:14.803Z,2.70
2017-11-27T16:57:15.838Z,3.03
2017-11-27T16:59:17.939Z,2.90
2017-11-27T17:01:18.977Z,3.57
2017-11-27T17:03:20.037Z,2.50
2017-11-27T17:05:21.014Z,2.17
2017-11-27T17:07:21.992Z,2.47
2017-11-27T17:09:23.005Z,2.60
2017-11-27T17:11:24.078Z,3.20
2017-11-27T17:13:25.244Z,2.50
2017-11-27T17:15:26.237Z,3.30
2017-11-27T17:17:27.323Z,3.27
2017-11-27T17:19:28.356Z,2.27
2017-11-27T17:21:29.407Z,3.07
2017-11-27T17:23:31.205Z,2.90
2017-11-27T17:25:32.250Z,2.80
2017-11-27T17:27:33.401Z,3.30
2017-11-27T17:29:34.394Z,3.40
2017-11-27T17:31:35.462Z,3.17
2017-11-27T17:33:36.453Z,2.63
2017-11-27T17:35:37.558Z,2.97
2017-11-27T17:37:38.569Z,2.37
2017-11-27T17:39:39.544Z,3.10
2017-11-27T17:41:40.521Z,3.10
2017-11-27T17:43:41.481Z,2.80
2017-11-27T17:45:42.455Z,2.93
2017-11-27T17:47:43.525Z,3.40
2017-11-27T17:49:44.904Z,2.80
2017-11-27T17:51:45.930Z,1.70
2017-11-27T17:53:47.010Z,2.90
2017-11-27T17:55:48.054Z,2.80
2017-11-27T17:57:49.510Z,2.50
2017-11-27T17:59:51.751Z,2.50
2017-11-27T18:01:52.761Z,3.97
2017-11-27T18:03:53.726Z,3.90
2017-11-27T18:05:54.689Z,3.43
2017-11-27T18:07:55.654Z,3.03
2017-11-27T18:09:56.637Z,3.20
2017-11-27T18:11:57.603Z,3.23
2017-11-27T18:13:58.597Z,3.27
2017-11-27T18:15:59.561Z,3.73
2017-11-27T18:18:00.673Z,3.70
2017-11-27T18:20:01.705Z,3.00
2017-11-27T18:22:02.680Z,4.30
2017-11-27T18:24:03.653Z,3.40
2017-11-27T18:26:04.673Z,4.03
2017-11-27T18:28:05.629Z,3.20
2017-11-27T18:30:06.677Z,2.17
2017-11-27T18:32:07.642Z,2.73
2017-11-27T18:34:08.618Z,2.60
2017-11-27T18:36:09.601Z,2.43
2017-11-27T18:38:10.594Z,3.10
2017-11-27T18:40:11.568Z,2.50
2017-11-27T18:42:12.537Z,2.90
2017-11-27T18:44:13.493Z,3.33
2017-11-27T18:46:14.500Z,3.20
2017-11-27T18:48:15.628Z,3.27
2017-11-27T18:50:16.654Z,4.40
2017-11-27T18:52:17.705Z,4.17
2017-11-27T18:54:18.883Z,4.10
2017-11-27T18:56:19.845Z,2.87
2017-11-27T18:58:20.796Z,3.13
2017-11-27T19:00:21.793Z,3.30
2017-11-27T19:02:22.747Z,3.83
2017-11-27T19:04:24.469Z,3.77
2017-11-27T19:06:25.461Z,4.10
2017-11-27T19:08:26.469Z,3.57
2017-11-27T19:10:27.465Z,4.40
2017-11-27T19:12:42.807Z,3.80
2017-11-27T19:14:44.837Z,2.77
2017-11-27T19:16:47.353Z,3.77
2017-11-27T19:18:50.415Z,3.63
2017-11-27T19:23:11.428Z,4.10
2017-11-27T19:25:12.736Z,4.60
2017-11-27T19:27:15.248Z,4.60
2017-11-27T19:29:20.381Z,4.20
2017-11-27T19:31:23.534Z,2.97
2017-11-27T19:33:32.988Z,4.93
2017-11-27T19:35:37.014Z,3.33
2017-11-27T19:37:51.251Z,3.90
2017-11-27T19:39:52.576Z,3.13
2017-11-27T19:41:59.192Z,4.17
2017-11-27T19:44:06.540Z,4.83
2017-11-27T19:46:12.932Z,5.83
2017-11-27T19:48:14.264Z,5.20
2017-11-27T19:50:17.640Z,4.50
2017-11-27T19:52:18.951Z,5.30
2017-11-27T19:54:21.926Z,5.40
2017-11-27T20:09:52.429Z,2.30
2017-11-27T20:11:53.510Z,3.27
2017-11-27T20:13:54.773Z,3.73
2017-11-27T20:15:55.826Z,3.27
2017-11-27T20:17:56.846Z,3.80
2017-11-27T20:22:36.336Z,2.97
2017-11-27T20:24:37.518Z,2.23
2017-11-27T20:26:59.159Z,2.30
2017-11-27T20:29:00.138Z,2.70
2017-11-27T20:31:26.216Z,2.67
2017-11-27T20:33:27.210Z,2.77
2017-11-27T20:35:28.297Z,3.20
2017-11-27T20:37:54.384Z,3.50
2017-11-27T20:42:24.535Z,4.00
2017-11-27T20:44:25.644Z,4.10
2017-11-27T20:46:26.728Z,4.13
2017-11-27T20:48:27.871Z,4.23
2017-11-27T20:50:29.246Z,4.60
2017-11-27T20:52:30.360Z,5.00
2017-11-27T20:54:31.349Z,6.00
2017-11-27T20:56:32.486Z,3.73
2017-11-27T20:58:33.629Z,4.30
2017-11-27T21:00:34.749Z,4.03
2017-11-27T21:02:35.854Z,4.97
2017-11-27T21:04:36.952Z,4.67
2017-11-27T21:06:37.960Z,4.20
2017-11-27T21:08:38.993Z,3.67
2017-11-27T21:10:39.978Z,3.03
2017-11-27T21:12:41.095Z,3.83
2017-11-27T21:14:42.124Z,3.50
2017-11-27T21:16:43.167Z,3.70
2017-11-27T21:18:44.312Z,3.30
2017-11-27T21:20:45.341Z,2.90
2017-11-27T21:22:46.311Z,3.00
2017-11-27T21:24:47.355Z,2.97
2017-11-27T21:26:48.391Z,2.67
2017-11-27T21:28:49.348Z,3.00
2017-11-27T21:30:50.337Z,3.30
2017-11-27T21:32:51.349Z,3.80
2017-11-27T21:34:52.373Z,3.95
2017-11-27T21:36:53.410Z,4.00
2017-11-27T21:38:54.502Z,3.60
2017-11-27T21:40:55.880Z,3.67
2017-11-27T21:42:58.131Z,3.43
2017-11-27T21:44:59.181Z,3.83
2017-11-27T21:47:01.171Z,4.30
2017-11-27T21:49:03.283Z,4.63
2017-11-27T21:51:04.315Z,4.10
2017-11-27T21:53:05.312Z,4.00
2017-11-27T21:55:06.471Z,4.20
2017-11-27T21:57:09.587Z,5.23
2017-11-27T21:59:10.927Z,4.23
2017-11-27T22:01:11.976Z,4.70
2017-11-27T22:03:13.911Z,5.30
2017-11-27T22:05:16.006Z,4.33
2017-11-27T22:07:17.077Z,4.70
2017-11-27T22:09:18.085Z,5.00
2017-11-27T22:11:19.114Z,6.22
2017-11-27T22:13:20.118Z,5.40
2017-11-27T22:15:21.086Z,4.90
2017-11-27T22:17:22.128Z,5.50
2017-11-27T22:19:23.133Z,5.30
2017-11-27T22:21:24.120Z,5.17
2017-11-27T22:23:26.029Z,5.13
2017-11-27T22:25:27.160Z,4.57
2017-11-27T22:27:28.390Z,4.83
2017-11-27T22:29:30.114Z,5.37
2017-11-27T22:31:31.256Z,4.40
2017-11-27T22:33:32.331Z,4.87
2017-11-27T22:35:33.377Z,3.90
2017-11-27T22:37:34.340Z,4.37
2017-11-27T22:39:35.328Z,5.00
2017-11-27T22:41:36.342Z,4.23
2017-11-27T22:43:37.516Z,2.93
2017-11-27T22:45:38.832Z,3.23
2017-11-27T22:47:40.752Z,4.23
2017-11-27T22:49:41.889Z,3.80
2017-11-27T22:51:45.498Z,3.33
2017-11-27T22:53:46.705Z,2.90
2017-11-27T22:55:48.172Z,3.80
2017-11-27T22:57:49.193Z,3.53
2017-11-27T22:59:50.304Z,3.47
2017-11-27T23:01:52.730Z,3.80
2017-11-27T23:03:53.817Z,3.57
2017-11-27T23:05:55.773Z,3.60
2017-11-27T23:07:56.829Z,3.77
2017-11-27T23:09:58.106Z,4.00
2017-11-27T23:11:59.090Z,4.40
2017-11-27T23:14:00.211Z,4.43
2017-11-27T23:16:01.245Z,4.50
2017-11-27T23:18:02.275Z,3.63
2017-11-27T23:20:03.349Z,4.03
2017-11-27T23:22:04.371Z,4.00
2017-11-27T23:24:05.425Z,3.30
2017-11-27T23:26:06.554Z,3.83
2017-11-27T23:28:08.211Z,3.50
2017-11-27T23:30:10.152Z,3.77
2017-11-27T23:32:12.251Z,3.00
2017-11-27T23:34:18.309Z,2.47
2017-11-27T23:36:19.311Z,1.93
2017-11-27T23:38:20.314Z,1.60
2017-11-27T23:40:21.361Z,1.50
2017-11-27T23:42:23.326Z,2.10
2017-11-27T23:44:24.383Z,2.10
2017-11-27T23:46:25.456Z,2.57
2017-11-27T23:48:26.588Z,2.20
2017-11-27T23:50:27.681Z,1.50
2017-11-27T23:52:31.131Z,1.70
2017-11-27T23:54:32.101Z,1.43
2017-11-27T23:56:33.216Z,1.80
2017-11-27T23:58:34.192Z,1.43
